sensor_id;sensor_type;location;lat;lon;timestamp;pressure;altitude;pressure_sealevel;temperature;humidity
6668;BME280;3370;47.712;9.082;2023-04-25T00:01:32;96534.78;;;8.32;78.51
6668;BME280;3370;47.712;9.082;2023-04-25T00:04:02;96541.81;;;8.26;77.05
6668;BME280;3370;47.712;9.082;2023-04-25T00:06:29;96541.22;;;8.21;77.14
6668;BME280;3370;47.712;9.082;2023-04-25T00:08:55;96537.97;;;8.18;77.52
6668;BME280;3370;47.712;9.082;2023-04-25T00:11:22;96533.38;;;8.24;77.19
6668;BME280;3370;47.712;9.082;2023-04-25T00:13:48;96541.81;;;8.26;75.84
6668;BME280;3370;47.712;9.082;2023-04-25T00:16:16;96535.31;;;8.19;75.42
6668;BME280;3370;47.712;9.082;2023-04-25T00:18:42;96530.63;;;8.29;73.55
6668;BME280;3370;47.712;9.082;2023-04-25T00:21:08;96544.06;;;7.95;73.92
6668;BME280;3370;47.712;9.082;2023-04-25T00:23:34;96533.88;;;7.93;73.68
6668;BME280;3370;47.712;9.082;2023-04-25T00:26:02;96534.19;;;8.06;73.83
6668;BME280;3370;47.712;9.082;2023-04-25T00:28:28;96527.53;;;8.02;73.35
6668;BME280;3370;47.712;9.082;2023-04-25T00:30:53;96523.00;;;8.09;73.53
6668;BME280;3370;47.712;9.082;2023-04-25T00:33:19;96528.81;;;7.92;71.70
6668;BME280;3370;47.712;9.082;2023-04-25T00:35:45;96519.91;;;7.81;71.11
6668;BME280;3370;47.712;9.082;2023-04-25T00:38:11;96516.47;;;7.81;71.63
6668;BME280;3370;47.712;9.082;2023-04-25T00:40:37;96521.34;;;7.66;71.21
6668;BME280;3370;47.712;9.082;2023-04-25T00:43:03;96524.81;;;7.65;71.65
6668;BME280;3370;47.712;9.082;2023-04-25T00:45:29;96526.66;;;7.62;71.69
6668;BME280;3370;47.712;9.082;2023-04-25T00:47:56;96525.91;;;7.60;72.32
6668;BME280;3370;47.712;9.082;2023-04-25T00:50:22;96514.75;;;7.61;73.10
6668;BME280;3370;47.712;9.082;2023-04-25T00:52:48;96508.38;;;7.71;74.43
6668;BME280;3370;47.712;9.082;2023-04-25T00:55:14;96510.81;;;7.74;76.75
6668;BME280;3370;47.712;9.082;2023-04-25T00:57:42;96508.25;;;7.74;77.69
6668;BME280;3370;47.712;9.082;2023-04-25T01:00:09;96503.91;;;7.76;78.96
6668;BME280;3370;47.712;9.082;2023-04-25T01:02:36;96499.41;;;7.81;79.99
6668;BME280;3370;47.712;9.082;2023-04-25T01:05:03;96500.03;;;7.86;79.64
6668;BME280;3370;47.712;9.082;2023-04-25T01:07:29;96501.81;;;7.84;78.95
6668;BME280;3370;47.712;9.082;2023-04-25T01:09:56;96497.63;;;7.83;79.82
6668;BME280;3370;47.712;9.082;2023-04-25T01:12:23;96500.25;;;7.82;80.58
6668;BME280;3370;47.712;9.082;2023-04-25T01:14:49;96509.38;;;7.87;82.09
6668;BME280;3370;47.712;9.082;2023-04-25T01:17:17;96505.34;;;7.82;82.87
6668;BME280;3370;47.712;9.082;2023-04-25T01:19:43;96498.50;;;7.82;85.14
6668;BME280;3370;47.712;9.082;2023-04-25T01:22:11;96504.13;;;7.91;86.16
6668;BME280;3370;47.712;9.082;2023-04-25T01:24:37;96514.84;;;7.80;87.47
6668;BME280;3370;47.712;9.082;2023-04-25T01:27:03;96506.94;;;7.23;86.65
6668;BME280;3370;47.712;9.082;2023-04-25T01:29:31;96494.78;;;7.28;87.83
6668;BME280;3370;47.712;9.082;2023-04-25T01:31:58;96498.88;;;6.89;88.26
6668;BME280;3370;47.712;9.082;2023-04-25T01:34:24;96499.97;;;6.84;90.16
6668;BME280;3370;47.712;9.082;2023-04-25T01:36:51;96495.91;;;7.00;94.55
6668;BME280;3370;47.712;9.082;2023-04-25T01:39:18;96489.91;;;6.79;93.48
6668;BME280;3370;47.712;9.082;2023-04-25T01:41:46;96495.88;;;6.56;94.57
6668;BME280;3370;47.712;9.082;2023-04-25T01:44:13;96496.72;;;6.35;97.02
6668;BME280;3370;47.712;9.082;2023-04-25T01:46:39;96494.69;;;6.43;97.80
6668;BME280;3370;47.712;9.082;2023-04-25T01:49:05;96489.94;;;6.33;99.36
6668;BME280;3370;47.712;9.082;2023-04-25T01:51:31;96471.97;;;6.37;99.31
6668;BME280;3370;47.712;9.082;2023-04-25T01:53:58;96471.50;;;6.25;100.00
6668;BME280;3370;47.712;9.082;2023-04-25T01:56:24;96475.88;;;6.22;96.85
6668;BME280;3370;47.712;9.082;2023-04-25T01:58:51;96473.59;;;6.38;98.45
6668;BME280;3370;47.712;9.082;2023-04-25T02:01:17;96478.72;;;6.38;99.27
6668;BME280;3370;47.712;9.082;2023-04-25T02:03:43;96470.91;;;6.42;100.00
6668;BME280;3370;47.712;9.082;2023-04-25T02:06:09;96466.59;;;6.43;100.00
6668;BME280;3370;47.712;9.082;2023-04-25T02:08:34;96466.66;;;6.41;100.00
6668;BME280;3370;47.712;9.082;2023-04-25T02:11:00;96459.84;;;6.42;100.00
6668;BME280;3370;47.712;9.082;2023-04-25T02:13:26;96464.09;;;6.41;100.00
6668;BME280;3370;47.712;9.082;2023-04-25T02:15:52;96459.56;;;6.49;100.00
6668;BME280;3370;47.712;9.082;2023-04-25T02:18:17;96463.94;;;6.46;100.00
6668;BME280;3370;47.712;9.082;2023-04-25T02:20:45;96455.88;;;6.35;100.00
6668;BME280;3370;47.712;9.082;2023-04-25T02:23:11;96450.50;;;6.41;100.00
6668;BME280;3370;47.712;9.082;2023-04-25T02:25:37;96453.59;;;6.49;100.00
6668;BME280;3370;47.712;9.082;2023-04-25T02:28:03;96461.91;;;6.54;100.00
6668;BME280;3370;47.712;9.082;2023-04-25T02:30:29;96459.28;;;6.33;100.00
6668;BME280;3370;47.712;9.082;2023-04-25T02:32:54;96466.03;;;6.12;100.00
6668;BME280;3370;47.712;9.082;2023-04-25T02:35:20;96459.31;;;6.10;100.00
6668;BME280;3370;47.712;9.082;2023-04-25T02:37:46;96454.50;;;6.02;100.00
6668;BME280;3370;47.712;9.082;2023-04-25T02:40:12;96462.31;;;5.98;100.00
6668;BME280;3370;47.712;9.082;2023-04-25T02:42:38;96461.66;;;5.91;100.00
6668;BME280;3370;47.712;9.082;2023-04-25T02:45:04;96461.53;;;5.95;100.00
6668;BME280;3370;47.712;9.082;2023-04-25T02:47:30;96465.13;;;5.90;100.00
6668;BME280;3370;47.712;9.082;2023-04-25T02:49:56;96458.88;;;5.99;100.00
6668;BME280;3370;47.712;9.082;2023-04-25T02:52:22;96466.41;;;6.02;100.00
6668;BME280;3370;47.712;9.082;2023-04-25T02:54:48;96456.16;;;6.03;100.00
6668;BME280;3370;47.712;9.082;2023-04-25T02:57:14;96461.97;;;6.07;100.00
6668;BME280;3370;47.712;9.082;2023-04-25T02:59:40;96465.91;;;6.16;100.00
6668;BME280;3370;47.712;9.082;2023-04-25T03:02:06;96454.97;;;6.12;100.00
6668;BME280;3370;47.712;9.082;2023-04-25T03:04:31;96465.63;;;6.00;100.00
6668;BME280;3370;47.712;9.082;2023-04-25T03:06:58;96465.84;;;5.93;100.00
6668;BME280;3370;47.712;9.082;2023-04-25T03:09:24;96461.53;;;5.95;100.00
6668;BME280;3370;47.712;9.082;2023-04-25T03:11:50;96458.75;;;6.02;100.00
6668;BME280;3370;47.712;9.082;2023-04-25T03:14:16;96450.69;;;6.12;100.00
6668;BME280;3370;47.712;9.082;2023-04-25T03:16:42;96458.75;;;6.02;100.00
6668;BME280;3370;47.712;9.082;2023-04-25T03:19:07;96460.72;;;5.93;100.00
6668;BME280;3370;47.712;9.082;2023-04-25T03:21:35;96457.59;;;5.85;100.00
6668;BME280;3370;47.712;9.082;2023-04-25T03:24:02;96460.28;;;5.82;100.00
6668;BME280;3370;47.712;9.082;2023-04-25T03:26:29;96450.84;;;5.84;100.00
6668;BME280;3370;47.712;9.082;2023-04-25T03:28:55;96453.41;;;5.84;100.00
6668;BME280;3370;47.712;9.082;2023-04-25T03:31:20;96456.06;;;5.81;100.00
6668;BME280;3370;47.712;9.082;2023-04-25T03:33:47;96449.22;;;5.82;100.00
6668;BME280;3370;47.712;9.082;2023-04-25T03:36:13;96445.84;;;5.81;100.00
6668;BME280;3370;47.712;9.082;2023-04-25T03:38:38;96456.50;;;5.69;100.00
6668;BME280;3370;47.712;9.082;2023-04-25T03:41:06;96448.16;;;5.64;100.00
6668;BME280;3370;47.712;9.082;2023-04-25T03:43:32;96448.47;;;5.54;100.00
6668;BME280;3370;47.712;9.082;2023-04-25T03:45:58;96449.16;;;5.60;100.00
6668;BME280;3370;47.712;9.082;2023-04-25T03:48:25;96446.34;;;5.67;100.00
6668;BME280;3370;47.712;9.082;2023-04-25T03:50:52;96442.75;;;5.73;99.92
6668;BME280;3370;47.712;9.082;2023-04-25T03:53:18;96451.81;;;5.56;98.87
6668;BME280;3370;47.712;9.082;2023-04-25T03:55:45;96443.88;;;5.66;99.15
6668;BME280;3370;47.712;9.082;2023-04-25T03:58:10;96451.81;;;5.56;99.92
6668;BME280;3370;47.712;9.082;2023-04-25T04:00:36;96444.84;;;5.62;100.00
6668;BME280;3370;47.712;9.082;2023-04-25T04:03:02;96442.28;;;5.62;100.00
6668;BME280;3370;47.712;9.082;2023-04-25T04:05:28;96436.31;;;5.63;100.00
6668;BME280;3370;47.712;9.082;2023-04-25T04:07:54;96431.97;;;5.65;100.00
6668;BME280;3370;47.712;9.082;2023-04-25T04:10:21;96437.03;;;5.66;100.00
6668;BME280;3370;47.712;9.082;2023-04-25T04:12:47;96436.72;;;5.75;100.00
6668;BME280;3370;47.712;9.082;2023-04-25T04:15:13;96434.22;;;5.74;100.00
6668;BME280;3370;47.712;9.082;2023-04-25T04:17:38;96434.88;;;5.79;100.00
6668;BME280;3370;47.712;9.082;2023-04-25T04:20:05;96431.69;;;5.72;100.00
6668;BME280;3370;47.712;9.082;2023-04-25T04:22:32;96434.38;;;5.69;100.00
6668;BME280;3370;47.712;9.082;2023-04-25T04:24:57;96429.34;;;5.68;100.00
6668;BME280;3370;47.712;9.082;2023-04-25T04:27:23;96430.47;;;5.59;100.00
6668;BME280;3370;47.712;9.082;2023-04-25T04:29:49;96428.81;;;5.58;100.00
6668;BME280;3370;47.712;9.082;2023-04-25T04:32:17;96438.97;;;5.60;100.00
6668;BME280;3370;47.712;9.082;2023-04-25T04:34:43;96434.75;;;5.59;100.00
6668;BME280;3370;47.712;9.082;2023-04-25T04:37:09;96434.84;;;5.55;100.00
6668;BME280;3370;47.712;9.082;2023-04-25T04:39:36;96427.97;;;5.57;100.00
6668;BME280;3370;47.712;9.082;2023-04-25T04:42:02;96430.75;;;5.51;100.00
6668;BME280;3370;47.712;9.082;2023-04-25T04:44:29;96427.44;;;5.49;100.00
6668;BME280;3370;47.712;9.082;2023-04-25T04:46:59;96432.84;;;5.64;100.00
6668;BME280;3370;47.712;9.082;2023-04-25T04:49:25;96426.09;;;5.63;100.00
6668;BME280;3370;47.712;9.082;2023-04-25T04:51:50;96430.97;;;5.69;100.00
6668;BME280;3370;47.712;9.082;2023-04-25T04:54:16;96425.09;;;5.67;100.00
6668;BME280;3370;47.712;9.082;2023-04-25T04:56:42;96427.59;;;5.68;100.00
6668;BME280;3370;47.712;9.082;2023-04-25T04:59:08;96430.00;;;5.73;100.00
6668;BME280;3370;47.712;9.082;2023-04-25T05:01:34;96431.31;;;5.83;100.00
6668;BME280;3370;47.712;9.082;2023-04-25T05:04:03;96428.44;;;5.92;100.00
6668;BME280;3370;47.712;9.082;2023-04-25T05:06:29;96425.94;;;5.91;100.00
6668;BME280;3370;47.712;9.082;2023-04-25T05:08:56;96422.59;;;5.89;100.00
6668;BME280;3370;47.712;9.082;2023-04-25T05:11:23;96421.47;;;5.98;100.00
6668;BME280;3370;47.712;9.082;2023-04-25T05:13:51;96436.69;;;6.01;100.00
6668;BME280;3370;47.712;9.082;2023-04-25T05:16:17;96428.38;;;5.95;100.00
6668;BME280;3370;47.712;9.082;2023-04-25T05:18:43;96431.69;;;5.98;100.00
6668;BME280;3370;47.712;9.082;2023-04-25T05:21:09;96429.03;;;6.01;100.00
6668;BME280;3370;47.712;9.082;2023-04-25T05:23:35;96424.53;;;6.07;100.00
6668;BME280;3370;47.712;9.082;2023-04-25T05:26:00;96426.25;;;6.29;100.00
6668;BME280;3370;47.712;9.082;2023-04-25T05:28:26;96421.75;;;6.36;100.00
6668;BME280;3370;47.712;9.082;2023-04-25T05:30:52;96424.25;;;6.37;100.00
6668;BME280;3370;47.712;9.082;2023-04-25T05:33:18;96431.75;;;6.42;100.00
6668;BME280;3370;47.712;9.082;2023-04-25T05:35:44;96435.38;;;6.58;100.00
6668;BME280;3370;47.712;9.082;2023-04-25T05:38:10;96433.81;;;6.54;100.00
6668;BME280;3370;47.712;9.082;2023-04-25T05:40:36;96437.22;;;6.55;100.00
6668;BME280;3370;47.712;9.082;2023-04-25T05:43:02;96427.84;;;6.55;100.00
6668;BME280;3370;47.712;9.082;2023-04-25T05:45:28;96429.25;;;6.62;100.00
6668;BME280;3370;47.712;9.082;2023-04-25T05:47:54;96429.00;;;6.68;100.00
6668;BME280;3370;47.712;9.082;2023-04-25T05:50:20;96423.78;;;6.71;100.00
6668;BME280;3370;47.712;9.082;2023-04-25T05:52:46;96423.53;;;6.78;100.00
6668;BME280;3370;47.712;9.082;2023-04-25T05:55:11;96418.19;;;6.84;100.00
6668;BME280;3370;47.712;9.082;2023-04-25T05:57:37;96420.47;;;6.90;100.00
6668;BME280;3370;47.712;9.082;2023-04-25T06:00:08;96422.94;;;6.93;100.00
6668;BME280;3370;47.712;9.082;2023-04-25T06:02:35;96425.03;;;7.04;100.00
6668;BME280;3370;47.712;9.082;2023-04-25T06:05:01;96428.16;;;7.10;100.00
6668;BME280;3370;47.712;9.082;2023-04-25T06:07:29;96423.69;;;7.16;100.00
6668;BME280;3370;47.712;9.082;2023-04-25T06:09:57;96429.22;;;7.27;100.00
6668;BME280;3370;47.712;9.082;2023-04-25T06:12:23;96421.16;;;7.36;100.00
6668;BME280;3370;47.712;9.082;2023-04-25T06:14:49;96428.38;;;7.47;100.00
6668;BME280;3370;47.712;9.082;2023-04-25T06:17:15;96427.00;;;7.59;100.00
6668;BME280;3370;47.712;9.082;2023-04-25T06:19:40;96424.81;;;7.70;100.00
6668;BME280;3370;47.712;9.082;2023-04-25T06:22:07;96421.19;;;7.95;95.50
6668;BME280;3370;47.712;9.082;2023-04-25T06:24:33;96422.97;;;7.93;91.03
6668;BME280;3370;47.712;9.082;2023-04-25T06:26:59;96421.94;;;7.97;89.10
6668;BME280;3370;47.712;9.082;2023-04-25T06:29:25;96415.78;;;8.01;90.66
6668;BME280;3370;47.712;9.082;2023-04-25T06:31:51;96412.59;;;8.15;91.64
6668;BME280;3370;47.712;9.082;2023-04-25T06:34:17;96419.16;;;8.20;88.85
6668;BME280;3370;47.712;9.082;2023-04-25T06:36:43;96403.09;;;8.17;89.67
6668;BME280;3370;47.712;9.082;2023-04-25T06:39:10;96402.41;;;8.13;91.07
6668;BME280;3370;47.712;9.082;2023-04-25T06:41:36;96402.13;;;8.19;91.22
6668;BME280;3370;47.712;9.082;2023-04-25T06:44:02;96410.31;;;8.28;91.59
6668;BME280;3370;47.712;9.082;2023-04-25T06:46:28;96404.19;;;8.30;88.85
6668;BME280;3370;47.712;9.082;2023-04-25T06:48:54;96407.53;;;8.32;87.40
6668;BME280;3370;47.712;9.082;2023-04-25T06:51:20;96409.31;;;8.30;88.11
6668;BME280;3370;47.712;9.082;2023-04-25T06:53:45;96414.81;;;8.22;88.16
6668;BME280;3370;47.712;9.082;2023-04-25T06:56:11;96421.25;;;8.31;90.09
6668;BME280;3370;47.712;9.082;2023-04-25T06:58:37;96418.13;;;8.24;88.77
6668;BME280;3370;47.712;9.082;2023-04-25T07:01:03;96422.22;;;8.29;88.65
6668;BME280;3370;47.712;9.082;2023-04-25T07:03:29;96423.47;;;8.20;87.74
6668;BME280;3370;47.712;9.082;2023-04-25T07:05:54;96419.53;;;8.13;87.87
6668;BME280;3370;47.712;9.082;2023-04-25T07:08:21;96432.47;;;8.10;86.32
6668;BME280;3370;47.712;9.082;2023-04-25T07:10:46;96428.66;;;8.18;85.48
6668;BME280;3370;47.712;9.082;2023-04-25T07:13:12;96435.63;;;7.77;88.11
6668;BME280;3370;47.712;9.082;2023-04-25T07:15:38;96446.88;;;7.73;88.34
6668;BME280;3370;47.712;9.082;2023-04-25T07:18:04;96455.22;;;7.57;91.38
6668;BME280;3370;47.712;9.082;2023-04-25T07:20:30;96459.91;;;7.05;91.57
6668;BME280;3370;47.712;9.082;2023-04-25T07:22:57;96476.41;;;6.76;96.50
6668;BME280;3370;47.712;9.082;2023-04-25T07:25:22;96469.06;;;6.46;100.00
6668;BME280;3370;47.712;9.082;2023-04-25T07:27:48;96472.63;;;6.18;100.00
6668;BME280;3370;47.712;9.082;2023-04-25T07:30:14;96478.66;;;5.92;100.00
6668;BME280;3370;47.712;9.082;2023-04-25T07:32:40;96485.22;;;5.74;100.00
6668;BME280;3370;47.712;9.082;2023-04-25T07:35:07;96486.69;;;5.56;100.00
6668;BME280;3370;47.712;9.082;2023-04-25T07:37:36;96490.00;;;5.33;100.00
6668;BME280;3370;47.712;9.082;2023-04-25T07:40:03;96497.50;;;5.37;100.00
6668;BME280;3370;47.712;9.082;2023-04-25T07:42:33;96490.13;;;5.30;100.00
6668;BME280;3370;47.712;9.082;2023-04-25T07:45:00;96485.03;;;5.30;100.00
6668;BME280;3370;47.712;9.082;2023-04-25T07:47:25;96480.22;;;5.21;100.00
6668;BME280;3370;47.712;9.082;2023-04-25T07:49:51;96483.41;;;5.27;100.00
6668;BME280;3370;47.712;9.082;2023-04-25T07:52:17;96485.13;;;5.27;100.00
6668;BME280;3370;47.712;9.082;2023-04-25T07:54:43;96489.22;;;5.31;100.00
6668;BME280;3370;47.712;9.082;2023-04-25T07:57:08;96494.09;;;5.38;100.00
6668;BME280;3370;47.712;9.082;2023-04-25T07:59:34;96500.56;;;5.47;100.00
6668;BME280;3370;47.712;9.082;2023-04-25T08:02:01;96498.97;;;5.70;100.00
6668;BME280;3370;47.712;9.082;2023-04-25T08:04:28;96501.25;;;5.52;100.00
6668;BME280;3370;47.712;9.082;2023-04-25T08:06:54;96505.00;;;5.67;100.00
6668;BME280;3370;47.712;9.082;2023-04-25T08:09:20;96503.31;;;5.68;100.00
6668;BME280;3370;47.712;9.082;2023-04-25T08:11:47;96507.50;;;5.69;100.00
6668;BME280;3370;47.712;9.082;2023-04-25T08:14:13;96507.19;;;5.78;100.00
6668;BME280;3370;47.712;9.082;2023-04-25T08:16:39;96511.38;;;5.55;100.00
6668;BME280;3370;47.712;9.082;2023-04-25T08:19:05;96508.66;;;5.60;100.00
6668;BME280;3370;47.712;9.082;2023-04-25T08:21:31;96514.91;;;5.51;100.00
6668;BME280;3370;47.712;9.082;2023-04-25T08:23:57;96512.59;;;5.69;100.00
6668;BME280;3370;47.712;9.082;2023-04-25T08:26:24;96522.34;;;5.57;100.00
6668;BME280;3370;47.712;9.082;2023-04-25T08:28:50;96520.00;;;5.51;100.00
6668;BME280;3370;47.712;9.082;2023-04-25T08:31:17;96520.09;;;5.48;100.00
6668;BME280;3370;47.712;9.082;2023-04-25T08:33:43;96524.94;;;5.56;100.00
6668;BME280;3370;47.712;9.082;2023-04-25T08:36:10;96526.56;;;5.59;100.00
6668;BME280;3370;47.712;9.082;2023-04-25T08:38:35;96529.63;;;5.68;100.00
6668;BME280;3370;47.712;9.082;2023-04-25T08:41:02;96531.16;;;5.74;100.00
6668;BME280;3370;47.712;9.082;2023-04-25T08:43:29;96535.47;;;5.72;100.00
6668;BME280;3370;47.712;9.082;2023-04-25T08:46:00;96535.63;;;5.67;100.00
6668;BME280;3370;47.712;9.082;2023-04-25T08:48:28;96536.50;;;5.66;100.00
6668;BME280;3370;47.712;9.082;2023-04-25T08:50:55;96549.22;;;5.68;100.00
6668;BME280;3370;47.712;9.082;2023-04-25T08:53:32;96551.03;;;5.64;100.00
6668;BME280;3370;47.712;9.082;2023-04-25T08:56:00;96553.22;;;5.50;100.00
6668;BME280;3370;47.712;9.082;2023-04-25T08:58:28;96558.00;;;5.59;100.00
6668;BME280;3370;47.712;9.082;2023-04-25T09:00:54;96565.72;;;5.57;100.00
6668;BME280;3370;47.712;9.082;2023-04-25T09:03:20;96559.97;;;5.76;100.00
6668;BME280;3370;47.712;9.082;2023-04-25T09:05:46;96571.56;;;5.86;100.00
6668;BME280;3370;47.712;9.082;2023-04-25T09:08:11;96573.34;;;5.84;100.00
6668;BME280;3370;47.712;9.082;2023-04-25T09:10:38;96576.75;;;5.83;100.00
6668;BME280;3370;47.712;9.082;2023-04-25T09:13:27;96576.28;;;5.99;100.00
6668;BME280;3370;47.712;9.082;2023-04-25T09:15:56;96581.66;;;6.14;100.00
6668;BME280;3370;47.712;9.082;2023-04-25T09:18:31;96587.84;;;6.32;100.00
6668;BME280;3370;47.712;9.082;2023-04-25T09:21:09;96596.59;;;6.25;100.00
6668;BME280;3370;47.712;9.082;2023-04-25T09:23:47;96593.47;;;6.42;100.00
6668;BME280;3370;47.712;9.082;2023-04-25T09:26:19;96596.75;;;6.46;100.00
6668;BME280;3370;47.712;9.082;2023-04-25T09:28:45;96599.66;;;6.60;100.00
6668;BME280;3370;47.712;9.082;2023-04-25T09:31:24;96603.03;;;6.61;100.00
6668;BME280;3370;47.712;9.082;2023-04-25T09:33:50;96608.72;;;6.69;100.00
6668;BME280;3370;47.712;9.082;2023-04-25T09:36:27;96606.63;;;6.79;100.00
6668;BME280;3370;47.712;9.082;2023-04-25T09:38:53;96609.31;;;6.98;100.00
6668;BME280;3370;47.712;9.082;2023-04-25T09:41:24;96599.81;;;7.01;100.00
6668;BME280;3370;47.712;9.082;2023-04-25T09:43:50;96609.47;;;7.17;100.00
6668;BME280;3370;47.712;9.082;2023-04-25T09:46:16;96602.91;;;7.54;100.00
6668;BME280;3370;47.712;9.082;2023-04-25T09:48:50;96607.03;;;7.78;100.00
6668;BME280;3370;47.712;9.082;2023-04-25T09:51:16;96611.94;;;7.62;100.00
6668;BME280;3370;47.712;9.082;2023-04-25T09:53:46;96614.47;;;7.42;99.54
6668;BME280;3370;47.712;9.082;2023-04-25T09:56:16;96611.22;;;7.59;100.00
6668;BME280;3370;47.712;9.082;2023-04-25T09:58:42;96619.06;;;7.76;100.00
6668;BME280;3370;47.712;9.082;2023-04-25T10:01:10;96615.75;;;7.74;95.34
6668;BME280;3370;47.712;9.082;2023-04-25T10:03:39;96612.03;;;7.81;97.21
6668;BME280;3370;47.712;9.082;2023-04-25T10:06:13;96608.56;;;7.82;96.98
6668;BME280;3370;47.712;9.082;2023-04-25T10:08:41;96609.34;;;7.84;97.54
6668;BME280;3370;47.712;9.082;2023-04-25T10:11:09;96605.69;;;7.90;96.65
6668;BME280;3370;47.712;9.082;2023-04-25T10:13:36;96609.09;;;8.11;94.53
6668;BME280;3370;47.712;9.082;2023-04-25T10:16:04;96613.69;;;8.23;93.12
6668;BME280;3370;47.712;9.082;2023-04-25T10:18:32;96614.53;;;8.24;90.94
6668;BME280;3370;47.712;9.082;2023-04-25T10:21:01;96607.97;;;8.37;92.16
6668;BME280;3370;47.712;9.082;2023-04-25T10:23:30;96610.59;;;8.56;89.98
6668;BME280;3370;47.712;9.082;2023-04-25T10:25:57;96609.97;;;8.31;89.36
6668;BME280;3370;47.712;9.082;2023-04-25T10:28:24;96601.78;;;8.22;86.04
6668;BME280;3370;47.712;9.082;2023-04-25T10:31:00;96607.22;;;8.15;88.60
6668;BME280;3370;47.712;9.082;2023-04-25T10:33:45;96604.09;;;8.08;89.80
6668;BME280;3370;47.712;9.082;2023-04-25T10:36:18;96604.28;;;8.24;91.82
6668;BME280;3370;47.712;9.082;2023-04-25T10:38:47;96607.00;;;8.40;91.43
6668;BME280;3370;47.712;9.082;2023-04-25T10:41:14;96614.41;;;8.27;89.19
6668;BME280;3370;47.712;9.082;2023-04-25T10:43:40;96610.88;;;8.09;86.05
6668;BME280;3370;47.712;9.082;2023-04-25T10:46:27;96613.41;;;8.30;89.32
6668;BME280;3370;47.712;9.082;2023-04-25T10:49:00;96609.69;;;8.37;86.77
6668;BME280;3370;47.712;9.082;2023-04-25T10:51:34;96609.97;;;8.51;84.65
6668;BME280;3370;47.712;9.082;2023-04-25T10:54:05;96619.56;;;8.46;84.71
6668;BME280;3370;47.712;9.082;2023-04-25T10:56:41;96614.69;;;8.40;85.27
6668;BME280;3370;47.712;9.082;2023-04-25T10:59:16;96621.94;;;8.51;85.53
6668;BME280;3370;47.712;9.082;2023-04-25T11:01:45;96622.91;;;8.48;84.45
6668;BME280;3370;47.712;9.082;2023-04-25T11:04:22;96619.56;;;8.67;85.31
6668;BME280;3370;47.712;9.082;2023-04-25T11:09:39;96632.38;;;9.05;82.57
6668;BME280;3370;47.712;9.082;2023-04-25T11:12:08;96627.25;;;8.67;86.93
6668;BME280;3370;47.712;9.082;2023-04-25T11:14:35;96635.91;;;9.21;85.22
6668;BME280;3370;47.712;9.082;2023-04-25T11:17:01;96615.22;;;9.43;79.15
6668;BME280;3370;47.712;9.082;2023-04-25T11:19:30;96627.91;;;9.27;74.40
6668;BME280;3370;47.712;9.082;2023-04-25T11:22:00;96624.28;;;9.31;72.02
6668;BME280;3370;47.712;9.082;2023-04-25T11:24:35;96616.78;;;9.46;71.70
6668;BME280;3370;47.712;9.082;2023-04-25T11:27:02;96616.53;;;9.87;70.72
6668;BME280;3370;47.712;9.082;2023-04-25T11:29:30;96608.44;;;9.94;70.69
6668;BME280;3370;47.712;9.082;2023-04-25T11:31:57;96599.53;;;10.19;69.65
6668;BME280;3370;47.712;9.082;2023-04-25T11:34:27;96609.13;;;9.98;68.83
6668;BME280;3370;47.712;9.082;2023-04-25T11:36:53;96604.16;;;10.46;66.69
6668;BME280;3370;47.712;9.082;2023-04-25T11:39:20;96609.53;;;10.74;68.15
6668;BME280;3370;47.712;9.082;2023-04-25T11:41:47;96610.97;;;11.74;67.99
6668;BME280;3370;47.712;9.082;2023-04-25T11:44:16;96614.19;;;12.24;66.67
6668;BME280;3370;47.712;9.082;2023-04-25T11:46:43;96611.38;;;12.13;66.54
6668;BME280;3370;47.712;9.082;2023-04-25T11:49:09;96608.44;;;12.91;75.10
6668;BME280;3370;47.712;9.082;2023-04-25T11:51:43;96607.13;;;13.54;63.75
6668;BME280;3370;47.712;9.082;2023-04-25T11:56:44;96609.16;;;13.76;65.23
6668;BME280;3370;47.712;9.082;2023-04-25T11:59:11;96606.56;;;14.16;63.72
6668;BME280;3370;47.712;9.082;2023-04-25T12:01:39;96621.72;;;13.95;62.41
6668;BME280;3370;47.712;9.082;2023-04-25T12:04:15;96629.91;;;13.34;68.53
6668;BME280;3370;47.712;9.082;2023-04-25T12:06:43;96641.09;;;12.63;70.48
6668;BME280;3370;47.712;9.082;2023-04-25T12:09:11;96636.00;;;12.18;71.89
6668;BME280;3370;47.712;9.082;2023-04-25T12:14:22;96651.06;;;11.16;72.15
6668;BME280;3370;47.712;9.082;2023-04-25T12:16:54;96654.06;;;11.08;74.93
6668;BME280;3370;47.712;9.082;2023-04-25T12:19:21;96651.94;;;10.15;74.76
6668;BME280;3370;47.712;9.082;2023-04-25T12:21:48;96650.16;;;10.17;77.15
6668;BME280;3370;47.712;9.082;2023-04-25T12:24:23;96667.34;;;9.63;79.94
6668;BME280;3370;47.712;9.082;2023-04-25T12:26:52;96654.66;;;9.77;79.06
6668;BME280;3370;47.712;9.082;2023-04-25T12:29:23;96645.31;;;10.11;83.34
6668;BME280;3370;47.712;9.082;2023-04-25T12:31:51;96645.75;;;10.36;78.32
6668;BME280;3370;47.712;9.082;2023-04-25T12:34:22;96645.91;;;10.84;80.02
6668;BME280;3370;47.712;9.082;2023-04-25T12:36:49;96651.22;;;11.13;78.46
6668;BME280;3370;47.712;9.082;2023-04-25T12:39:20;96653.13;;;11.25;80.07
6668;BME280;3370;47.712;9.082;2023-04-25T12:41:51;96650.34;;;11.76;82.23
6668;BME280;3370;47.712;9.082;2023-04-25T12:44:21;96644.06;;;12.57;80.62
6668;BME280;3370;47.712;9.082;2023-04-25T12:46:47;96638.94;;;14.34;76.46
6668;BME280;3370;47.712;9.082;2023-04-25T12:49:13;96640.81;;;14.84;68.13
6668;BME280;3370;47.712;9.082;2023-04-25T12:51:39;96635.22;;;15.64;67.16
6668;BME280;3370;47.712;9.082;2023-04-25T12:54:07;96640.03;;;15.81;62.13
6668;BME280;3370;47.712;9.082;2023-04-25T12:56:34;96637.16;;;17.34;60.93
6668;BME280;3370;47.712;9.082;2023-04-25T12:59:00;96641.56;;;16.77;58.32
6668;BME280;3370;47.712;9.082;2023-04-25T13:01:28;96635.34;;;15.86;56.52
6668;BME280;3370;47.712;9.082;2023-04-25T13:03:55;96641.44;;;16.09;56.84
6668;BME280;3370;47.712;9.082;2023-04-25T13:06:22;96640.91;;;14.31;55.29
6668;BME280;3370;47.712;9.082;2023-04-25T13:08:48;96643.06;;;14.37;58.56
6668;BME280;3370;47.712;9.082;2023-04-25T13:11:14;96638.13;;;14.85;59.71
6668;BME280;3370;47.712;9.082;2023-04-25T13:13:43;96637.38;;;14.19;56.67
6668;BME280;3370;47.712;9.082;2023-04-25T13:16:09;96642.34;;;13.69;54.86
6668;BME280;3370;47.712;9.082;2023-04-25T13:18:36;96635.53;;;14.47;53.35
6668;BME280;3370;47.712;9.082;2023-04-25T13:21:02;96646.47;;;14.25;52.13
6668;BME280;3370;47.712;9.082;2023-04-25T13:23:29;96645.97;;;14.19;52.69
6668;BME280;3370;47.712;9.082;2023-04-25T13:25:56;96645.25;;;14.30;51.92
6668;BME280;3370;47.712;9.082;2023-04-25T13:28:25;96650.88;;;14.63;50.15
6668;BME280;3370;47.712;9.082;2023-04-25T13:30:50;96656.44;;;14.44;51.30
6668;BME280;3370;47.712;9.082;2023-04-25T13:33:17;96648.94;;;13.73;49.44